Time;durP1;ratioP1;P1;durP2;ratioP2;P2;SDS_P1;SDS_P2;PMS_P1;PMS_P2;Temp;Humidity;BMP_temperature;BMP_pressure;BME280_temperature;BME280_humidity;BME280_pressure;Samples;Min_cycle;Max_cycle;Signal;HPM_P1;HPM_P2
2022/01/11 00:02:16;;;;;;;17.60;9.00;;;;;;;2.44;76.43;94158.25;5130331;27;20034;-73
2022/01/11 00:04:42;;;;;;;14.50;7.28;;;;;;;2.47;76.46;94170.88;5078820;28;20416;-73
2022/01/11 00:07:11;;;;;;;11.85;7.03;;;;;;;2.52;76.52;94178.28;5129940;27;20030;-73
2022/01/11 00:09:42;;;;;;;15.73;7.90;;;;;;;2.54;76.58;94179.03;5129582;27;20407;-73
2022/01/11 00:12:08;;;;;;;18.75;8.95;;;;;;;2.61;75.97;94172.59;5129829;27;20062;-73
2022/01/11 00:14:35;;;;;;;16.20;8.70;;;;;;;2.53;76.09;94182.50;5108568;27;20046;-73
2022/01/11 00:17:00;;;;;;;13.75;7.60;;;;;;;2.39;76.29;94176.47;5119868;27;20395;-73
2022/01/11 00:19:28;;;;;;;17.95;7.55;;;;;;;2.43;76.25;94177.13;5118023;27;20034;-73
2022/01/11 00:21:54;;;;;;;16.80;8.25;;;;;;;2.49;76.18;94187.00;5104019;28;20100;-73
2022/01/11 00:24:33;;;;;;;17.20;7.60;;;;;;;2.39;75.74;94186.72;5113015;27;20032;-73
2022/01/11 00:27:00;;;;;;;13.82;7.35;;;;;;;2.36;76.69;94193.78;5119547;27;20026;-73
2022/01/11 00:29:26;;;;;;;14.45;7.10;;;;;;;2.34;76.71;94195.59;5118822;27;20027;-73
2022/01/11 00:31:52;;;;;;;12.38;5.78;;;;;;;2.29;76.33;94190.78;5088565;28;20035;-73
2022/01/11 00:34:20;;;;;;;12.60;5.80;;;;;;;2.28;76.19;94198.53;5105992;28;20508;-73
2022/01/11 00:36:45;;;;;;;11.05;6.00;;;;;;;2.22;76.84;94192.03;5093991;28;20494;-73
2022/01/11 00:39:11;;;;;;;11.95;5.88;;;;;;;2.28;77.11;94198.53;5103097;27;20096;-73
2022/01/11 00:41:40;;;;;;;13.10;6.72;;;;;;;2.22;77.30;94197.16;5129357;27;20035;-73
2022/01/11 00:44:06;;;;;;;10.40;5.97;;;;;;;2.21;76.98;94198.09;5113606;27;20031;-73
2022/01/11 00:46:32;;;;;;;12.82;5.80;;;;;;;2.22;77.29;94197.16;5095260;27;20039;-73
2022/01/11 00:48:57;;;;;;;13.75;6.22;;;;;;;2.24;77.21;94203.84;5127251;27;20103;-73
2022/01/11 00:51:23;;;;;;;13.00;6.75;;;;;;;2.26;77.20;94205.50;5130326;27;20425;-73
2022/01/11 00:53:48;;;;;;;11.23;6.00;;;;;;;2.29;76.73;94205.34;5093386;28;20455;-73
2022/01/11 00:56:14;;;;;;;11.85;5.53;;;;;;;2.35;76.54;94210.09;5128275;27;20036;-73
2022/01/11 00:58:39;;;;;;;10.80;6.13;;;;;;;2.36;76.55;94211.72;5098890;27;20030;-73
2022/01/11 01:01:04;;;;;;;15.18;6.55;;;;;;;2.40;76.37;94211.47;5128930;27;20034;-73
2022/01/11 01:03:30;;;;;;;24.98;10.05;;;;;;;2.31;76.42;94224.81;5117945;27;20506;-73
2022/01/11 01:05:55;;;;;;;24.35;10.40;;;;;;;2.25;76.38;94225.19;5111182;27;20054;-73
2022/01/11 01:08:21;;;;;;;19.92;9.65;;;;;;;2.24;76.71;94228.66;5127429;27;20035;-73
2022/01/11 01:10:46;;;;;;;18.92;8.75;;;;;;;2.28;76.80;94226.72;5111585;28;20035;-73
2022/01/11 01:13:17;;;;;;;11.38;5.93;;;;;;;2.33;76.37;94233.22;5129333;27;20019;-73
2022/01/11 01:15:46;;;;;;;11.83;6.30;;;;;;;2.28;76.48;94225.00;5112198;28;20032;-73
2022/01/11 01:18:14;;;;;;;11.80;6.03;;;;;;;2.34;76.23;94229.78;5111965;28;20261;-73
2022/01/11 01:20:40;;;;;;;11.35;5.95;;;;;;;2.27;76.21;94227.66;5097619;28;20114;-73
2022/01/11 01:23:05;;;;;;;14.10;6.80;;;;;;;2.28;76.54;94235.25;5110158;28;20109;-72
2022/01/11 01:25:31;;;;;;;13.00;7.65;;;;;;;2.27;76.89;94240.47;5107845;28;20032;-73
2022/01/11 01:27:57;;;;;;;12.05;6.03;;;;;;;2.24;76.68;94255.13;5122064;28;20023;-72
2022/01/11 01:30:22;;;;;;;11.75;6.35;;;;;;;2.21;76.70;94250.19;5116296;28;20050;-72
2022/01/11 01:32:51;;;;;;;17.45;9.02;;;;;;;2.21;77.17;94254.47;5122180;28;20511;-73
2022/01/11 01:35:18;;;;;;;26.20;14.15;;;;;;;2.23;76.51;94261.16;5091818;28;20058;-73
2022/01/11 01:37:43;;;;;;;24.90;11.38;;;;;;;2.25;76.45;94261.06;5112569;28;20019;-73
2022/01/11 01:40:11;;;;;;;19.38;10.30;;;;;;;2.21;76.50;94263.00;5109677;28;20028;-73
2022/01/11 01:42:37;;;;;;;16.20;7.75;;;;;;;2.16;76.10;94252.19;5126125;28;20485;-73
2022/01/11 01:45:03;;;;;;;14.70;7.05;;;;;;;2.09;75.22;94248.34;5114680;28;20035;-73
2022/01/11 01:47:28;;;;;;;24.73;9.88;;;;;;;2.03;74.99;94251.25;5122295;27;20149;-73
2022/01/11 01:49:54;;;;;;;15.90;7.72;;;;;;;2.00;75.38;94251.44;5119256;28;20055;-73
2022/01/11 01:52:19;;;;;;;11.25;5.13;;;;;;;1.97;75.64;94254.16;5118288;27;20028;-73
2022/01/11 01:54:45;;;;;;;10.45;5.28;;;;;;;1.96;75.88;94261.03;5119098;27;20031;-73
2022/01/11 01:57:10;;;;;;;8.85;4.18;;;;;;;2.00;75.51;94259.09;5096088;28;20027;-73
2022/01/11 01:59:36;;;;;;;8.48;4.88;;;;;;;1.89;75.83;94253.78;5113922;28;20307;-73
2022/01/11 02:02:01;;;;;;;15.07;6.57;;;;;;;1.96;75.81;94265.34;5103665;28;20562;-72
2022/01/11 02:04:27;;;;;;;8.20;4.97;;;;;;;1.95;75.78;94269.66;5109110;28;20595;-73
2022/01/11 02:06:53;;;;;;;6.82;3.78;;;;;;;1.77;76.04;94256.13;5109770;28;20058;-73
2022/01/11 02:09:19;;;;;;;8.18;3.85;;;;;;;1.77;76.19;94271.50;5114622;28;20407;-72
2022/01/11 02:11:46;;;;;;;10.25;5.90;;;;;;;1.87;76.19;94276.13;5105096;28;20031;-73
2022/01/11 02:14:11;;;;;;;10.38;4.90;;;;;;;1.81;76.18;94281.56;5124526;28;20023;-73
2022/01/11 02:16:37;;;;;;;6.18;3.70;;;;;;;1.81;76.42;94277.28;5120576;27;20023;-73
2022/01/11 02:19:02;;;;;;;7.88;4.03;;;;;;;1.81;76.16;94287.50;5114803;27;20485;-72
2022/01/11 02:21:28;;;;;;;11.95;4.82;;;;;;;1.81;76.67;94282.41;5122385;27;20047;-73
2022/01/11 02:23:54;;;;;;;8.30;5.22;;;;;;;1.75;76.54;94278.44;5128519;27;20042;-73
2022/01/11 02:26:20;;;;;;;10.18;6.57;;;;;;;1.76;76.92;94280.13;5099088;27;20088;-72
2022/01/11 02:28:46;;;;;;;9.52;6.40;;;;;;;1.78;76.88;94287.69;5111569;28;20517;-73
2022/01/11 02:31:14;;;;;;;8.90;5.43;;;;;;;1.77;76.45;94292.00;5128442;27;20417;-73
2022/01/11 02:33:43;;;;;;;13.20;6.90;;;;;;;1.75;76.46;94282.75;5117182;27;20111;-72
2022/01/11 02:36:30;;;;;;;11.00;6.82;;;;;;;1.75;76.60;94288.69;5104620;27;20055;-73
2022/01/11 02:38:56;;;;;;;15.30;5.88;;;;;;;1.71;76.91;94289.78;5102889;28;20027;-73
2022/01/11 02:41:21;;;;;;;8.75;5.00;;;;;;;1.70;76.58;94290.72;5124981;27;20066;-73
2022/01/11 02:43:47;;;;;;;11.18;4.82;;;;;;;1.65;77.23;94295.25;5117879;27;20072;-73
2022/01/11 02:46:13;;;;;;;7.70;3.72;;;;;;;1.64;76.78;94293.59;5126919;27;20503;-73
2022/01/11 02:48:39;;;;;;;8.35;4.55;;;;;;;1.67;77.11;94290.88;5116709;27;20108;-73
2022/01/11 02:51:04;;;;;;;11.00;5.03;;;;;;;1.67;76.62;94290.88;5120927;27;20043;-72
2022/01/11 02:53:30;;;;;;;12.68;5.35;;;;;;;1.74;76.64;94296.47;5113671;28;20173;-73
2022/01/11 02:55:56;;;;;;;10.30;4.93;;;;;;;1.61;76.42;94292.94;5132595;27;20603;-73
2022/01/11 02:58:21;;;;;;;15.48;5.65;;;;;;;1.65;76.51;94297.00;5098055;27;20043;-73
2022/01/11 03:00:46;;;;;;;10.00;4.70;;;;;;;1.66;76.94;94302.03;5131010;27;20031;-73
2022/01/11 03:03:22;;;;;;;11.45;5.80;;;;;;;1.69;76.95;94309.53;5103591;28;20031;-73
2022/01/11 03:05:49;;;;;;;9.10;5.45;;;;;;;1.66;76.84;94303.75;5093028;27;20063;-72
2022/01/11 03:08:15;;;;;;;10.48;5.22;;;;;;;1.69;76.47;94303.59;5078500;28;20512;-73
2022/01/11 03:10:41;;;;;;;9.93;5.65;;;;;;;1.68;76.37;94309.63;5112394;27;20039;-73
2022/01/11 03:13:07;;;;;;;9.32;5.50;;;;;;;1.66;77.19;94309.69;5116343;27;20492;-73
2022/01/11 03:15:33;;;;;;;8.75;5.10;;;;;;;1.71;76.25;94312.03;5130618;27;20035;-73
2022/01/11 03:17:59;;;;;;;7.32;5.05;;;;;;;1.68;76.59;94312.19;5078826;28;20459;-73
2022/01/11 03:20:24;;;;;;;9.98;4.82;;;;;;;1.67;76.76;94316.50;5117650;27;20028;-73
2022/01/11 03:22:50;;;;;;;5.47;3.38;;;;;;;1.69;76.53;94322.34;5132562;27;20110;-73
2022/01/11 03:25:17;;;;;;;6.63;4.00;;;;;;;1.67;76.62;94319.06;5130151;27;20039;-72
2022/01/11 03:27:42;;;;;;;9.07;5.07;;;;;;;1.69;76.70;94322.34;5131658;27;20027;-73
2022/01/11 03:30:08;;;;;;;7.72;4.93;;;;;;;1.72;76.49;94324.72;5116395;27;20044;-73
2022/01/11 03:32:34;;;;;;;9.05;4.45;;;;;;;1.72;76.93;94329.84;5107417;28;20031;-73
2022/01/11 03:34:59;;;;;;;8.07;4.95;;;;;;;1.72;76.77;94319.59;5119617;27;20402;-72
2022/01/11 03:37:25;;;;;;;8.70;5.75;;;;;;;1.70;76.83;94318.03;5133428;27;20031;-72
2022/01/11 03:39:50;;;;;;;10.63;5.82;;;;;;;1.75;76.51;94323.72;5120992;27;20023;-73
2022/01/11 03:42:16;;;;;;;9.57;4.97;;;;;;;1.71;76.16;94322.25;5125496;27;20084;-73
2022/01/11 03:44:41;;;;;;;11.63;5.35;;;;;;;1.76;75.94;94326.22;5127023;27;20092;-73
2022/01/11 03:47:07;;;;;;;9.57;5.10;;;;;;;1.72;75.85;94319.59;5124664;27;20512;-73
2022/01/11 03:49:33;;;;;;;10.85;4.70;;;;;;;1.75;74.51;94333.97;5121048;27;20036;-73
2022/01/11 03:51:58;;;;;;;6.82;3.53;;;;;;;1.66;73.88;94325.06;5111360;28;20039;-72
2022/01/11 03:54:27;;;;;;;7.10;3.20;;;;;;;1.63;74.13;94330.38;5112343;27;20492;-73
2022/01/11 03:56:52;;;;;;;7.30;3.40;;;;;;;1.63;74.25;94329.53;5095091;28;20038;-73
2022/01/11 03:59:18;;;;;;;6.28;3.78;;;;;;;1.59;74.11;94340.84;5100011;27;20389;-73
2022/01/11 04:01:44;;;;;;;9.93;4.35;;;;;;;1.52;73.65;94333.50;5099195;28;20035;-73
2022/01/11 04:04:10;;;;;;;6.57;3.70;;;;;;;1.53;74.31;94342.00;5128089;27;20568;-73
2022/01/11 04:06:36;;;;;;;6.47;3.65;;;;;;;1.51;73.60;94346.41;5127101;27;20654;-73
2022/01/11 04:09:02;;;;;;;7.38;4.20;;;;;;;1.47;73.71;94352.59;5126893;27;20408;-73
2022/01/11 04:11:27;;;;;;;6.00;4.00;;;;;;;1.48;73.46;94354.28;5091724;28;20066;-73
2022/01/11 04:13:53;;;;;;;4.15;2.40;;;;;;;1.39;74.12;94341.94;5113417;27;20027;-72
2022/01/11 04:16:18;;;;;;;4.55;2.30;;;;;;;1.41;74.26;94358.88;5129634;27;20042;-73
2022/01/11 04:18:43;;;;;;;5.72;3.20;;;;;;;1.40;75.06;94364.91;5111943;27;20035;-73
2022/01/11 04:21:09;;;;;;;6.75;4.70;;;;;;;1.44;74.35;94373.25;5113469;27;20035;-72
2022/01/11 04:23:35;;;;;;;5.18;4.45;;;;;;;1.45;74.08;94377.44;5093637;28;20023;-73
2022/01/11 04:26:00;;;;;;;5.25;3.10;;;;;;;1.41;73.83;94375.97;5095072;27;20085;-73
2022/01/11 04:28:27;;;;;;;5.38;3.17;;;;;;;1.35;74.04;94361.78;5106113;28;20035;-74
2022/01/11 04:30:53;;;;;;;5.25;3.20;;;;;;;1.47;74.12;94376.47;5095127;28;20043;-73
2022/01/11 04:33:19;;;;;;;5.07;3.03;;;;;;;1.45;73.21;94387.69;5105596;27;20561;-73
2022/01/11 04:35:48;;;;;;;5.40;2.67;;;;;;;1.44;73.04;94383.47;5097857;28;20501;-72
2022/01/11 04:38:16;;;;;;;6.22;3.00;;;;;;;1.44;74.13;94383.47;5126630;27;20026;-73
2022/01/11 04:40:42;;;;;;;5.93;3.55;;;;;;;1.42;74.12;94388.72;5116988;27;20020;-73
2022/01/11 04:43:07;;;;;;;5.10;2.88;;;;;;;1.25;73.56;94375.97;5103408;28;20496;-73
2022/01/11 04:45:33;;;;;;;5.20;2.90;;;;;;;1.37;73.44;94397.53;5101656;27;20473;-73
2022/01/11 04:47:58;;;;;;;5.80;4.45;;;;;;;1.39;73.91;94400.81;5128890;27;20027;-73
2022/01/11 04:50:25;;;;;;;5.80;3.47;;;;;;;1.24;73.52;94400.72;5117326;27;20039;-73
2022/01/11 04:52:50;;;;;;;4.03;2.75;;;;;;;1.12;73.18;94386.03;5113832;27;20458;-73
2022/01/11 04:55:16;;;;;;;7.28;3.65;;;;;;;1.24;73.43;94416.09;5109316;28;20036;-73
2022/01/11 04:57:41;;;;;;;8.20;4.10;;;;;;;1.23;73.74;94408.50;5099359;27;20023;-73
2022/01/11 05:00:07;;;;;;;5.90;3.58;;;;;;;1.18;73.76;94413.84;5111808;27;20035;-73
2022/01/11 05:02:33;;;;;;;4.30;2.88;;;;;;;1.14;73.83;94419.19;5113145;27;20031;-73
2022/01/11 05:04:58;;;;;;;4.82;2.90;;;;;;;1.17;72.77;94417.34;5115456;27;20423;-73
2022/01/11 05:07:24;;;;;;;5.20;2.63;;;;;;;1.16;73.09;94415.66;5113481;27;20481;-73
2022/01/11 05:09:51;;;;;;;5.20;3.20;;;;;;;1.15;73.84;94418.31;5114221;28;20429;-72
2022/01/11 05:12:16;;;;;;;6.57;3.75;;;;;;;1.09;73.59;94417.72;5089396;28;20493;-73
2022/01/11 05:14:42;;;;;;;7.18;4.28;;;;;;;1.07;73.83;94423.81;5117630;27;20031;-73
2022/01/11 05:17:07;;;;;;;7.53;4.05;;;;;;;1.06;72.94;94427.31;5116576;27;20088;-73
2022/01/11 05:19:32;;;;;;;6.22;3.65;;;;;;;1.02;73.63;94430.91;5110741;28;20032;-73
2022/01/11 05:21:58;;;;;;;6.15;3.67;;;;;;;1.13;72.96;94435.47;5106952;28;20035;-73
2022/01/11 05:24:23;;;;;;;21.67;10.90;;;;;;;1.09;72.97;94443.31;5127995;27;20038;-73
2022/01/11 05:26:49;;;;;;;10.85;6.15;;;;;;;1.08;73.67;94438.25;5130584;27;20039;-73
2022/01/11 05:29:14;;;;;;;8.70;4.30;;;;;;;1.06;73.17;94443.47;5109349;28;20035;-73
2022/01/11 05:31:40;;;;;;;8.82;4.32;;;;;;;0.93;72.87;94426.28;5110307;28;20426;-73
2022/01/11 05:34:05;;;;;;;14.23;7.65;;;;;;;1.01;72.55;94449.72;5126384;28;20027;-73
2022/01/11 05:36:31;;;;;;;13.48;5.72;;;;;;;1.00;73.02;94455.72;5130082;27;20042;-73
2022/01/11 05:38:56;;;;;;;11.13;5.60;;;;;;;1.06;73.59;94456.25;5113528;27;20031;-73
2022/01/11 05:41:21;;;;;;;8.43;4.50;;;;;;;1.03;73.07;94453.88;5093941;28;20550;-73
2022/01/11 05:43:47;;;;;;;5.43;3.60;;;;;;;0.98;72.38;94455.81;5112721;28;20413;-73
2022/01/11 05:46:12;;;;;;;7.55;3.88;;;;;;;0.97;72.86;94456.72;5130449;28;20498;-73
2022/01/11 05:48:38;;;;;;;5.53;3.28;;;;;;;0.87;71.85;94445.31;5110118;28;20095;-73
2022/01/11 05:51:03;;;;;;;6.80;2.90;;;;;;;0.83;71.38;94462.53;5127397;27;20036;-72
2022/01/11 05:53:29;;;;;;;9.18;3.65;;;;;;;0.84;71.39;94471.88;5120483;27;20054;-73
2022/01/11 05:55:54;;;;;;;11.65;4.07;;;;;;;0.88;72.05;94481.03;5125038;27;20088;-73
2022/01/11 05:58:20;;;;;;;8.70;4.55;;;;;;;0.91;72.56;94474.13;5096581;28;20034;-72
2022/01/11 06:00:45;;;;;;;7.72;4.60;;;;;;;0.83;73.25;94483.00;5127548;27;20027;-73
2022/01/11 06:03:10;;;;;;;9.35;4.20;;;;;;;0.84;72.87;94477.00;5116972;27;20023;-73
2022/01/11 06:05:39;;;;;;;24.83;8.85;;;;;;;0.80;72.16;94474.66;5134114;27;20031;-73
2022/01/11 06:08:05;;;;;;;8.73;4.53;;;;;;;0.84;72.26;94484.66;5135243;27;20064;-73
2022/01/11 06:10:30;;;;;;;6.38;4.07;;;;;;;0.86;72.35;94495.66;5099735;27;20038;-73
2022/01/11 06:12:56;;;;;;;9.77;5.00;;;;;;;0.78;72.35;94474.75;5119758;27;20028;-73
2022/01/11 06:15:21;;;;;;;8.70;4.82;;;;;;;0.93;72.11;94497.91;5113177;28;20386;-73
2022/01/11 06:17:48;;;;;;;6.25;4.45;;;;;;;0.92;71.12;94498.78;5113382;28;20334;-73
2022/01/11 06:20:13;;;;;;;7.60;4.60;;;;;;;0.87;71.08;94507.53;5102921;27;20035;-73
2022/01/11 06:22:38;;;;;;;8.23;4.80;;;;;;;0.84;71.82;94512.78;5088296;27;20054;-73
2022/01/11 06:25:05;;;;;;;8.45;4.75;;;;;;;0.88;71.33;94513.47;5126456;27;20039;-72
2022/01/11 06:27:31;;;;;;;8.70;5.50;;;;;;;0.82;71.25;94517.16;5134739;27;20105;-72
2022/01/11 06:29:57;;;;;;;10.90;6.65;;;;;;;0.81;70.39;94515.50;5116550;27;20047;-73
2022/01/11 06:32:22;;;;;;;8.25;4.95;;;;;;;0.81;71.20;94514.69;5113875;27;20417;-72
2022/01/11 06:34:47;;;;;;;8.60;5.13;;;;;;;0.87;71.88;94530.53;5114908;27;20027;-72
2022/01/11 06:37:13;;;;;;;7.35;4.25;;;;;;;0.86;71.37;94525.50;5115619;27;20069;-72
2022/01/11 06:39:39;;;;;;;8.95;4.75;;;;;;;0.86;72.59;94528.03;5079978;27;20043;-72
2022/01/11 06:42:05;;;;;;;10.00;5.80;;;;;;;0.84;72.39;94523.03;5129371;27;20481;-72
2022/01/11 06:44:31;;;;;;;11.52;5.40;;;;;;;0.79;72.93;94517.31;5116075;27;20027;-73
2022/01/11 06:46:56;;;;;;;8.95;4.97;;;;;;;0.89;72.22;94530.44;5135017;27;20059;-72
2022/01/11 06:49:22;;;;;;;6.88;4.25;;;;;;;0.78;71.11;94530.16;5112715;28;20088;-73
2022/01/11 06:51:47;;;;;;;6.53;4.20;;;;;;;0.79;73.41;94537.75;5095990;28;20300;-72
2022/01/11 06:54:12;;;;;;;6.43;3.35;;;;;;;0.79;73.16;94529.28;5113723;28;20019;-72
2022/01/11 06:56:38;;;;;;;6.75;3.95;;;;;;;0.85;72.57;94541.75;5096565;27;20249;-72
2022/01/11 06:59:03;;;;;;;8.82;4.32;;;;;;;0.87;72.85;94553.56;5129218;27;20057;-73
2022/01/11 07:01:29;;;;;;;7.40;4.28;;;;;;;0.87;72.67;94563.78;5134181;27;20099;-72
2022/01/11 07:03:55;;;;;;;6.80;4.35;;;;;;;0.86;72.12;94554.47;5115764;27;20035;-72
2022/01/11 07:06:20;;;;;;;6.45;3.55;;;;;;;0.86;72.75;94574.94;5125376;27;20143;-72
2022/01/11 07:08:45;;;;;;;6.78;3.90;;;;;;;0.76;71.73;94572.91;5113274;28;20024;-72
2022/01/11 07:11:12;;;;;;;8.43;4.75;;;;;;;0.79;73.46;94557.41;5124598;27;20039;-72
2022/01/11 07:13:38;;;;;;;7.13;3.80;;;;;;;0.81;73.40;94568.38;5112104;28;20024;-72
2022/01/11 07:16:03;;;;;;;7.50;4.53;;;;;;;0.85;73.53;94572.44;5112272;28;20414;-72
2022/01/11 07:18:29;;;;;;;9.27;5.30;;;;;;;0.85;74.09;94582.66;5113860;27;20031;-72
2022/01/11 07:20:54;;;;;;;8.18;4.60;;;;;;;0.84;72.97;94581.03;5106425;27;20515;-72
2022/01/11 07:23:20;;;;;;;12.88;5.68;;;;;;;0.80;72.78;94584.63;5114697;27;20459;-73
2022/01/11 07:25:45;;;;;;;8.70;5.15;;;;;;;0.69;73.27;94590.25;5123983;27;20554;-73
2022/01/11 07:28:12;;;;;;;8.38;4.85;;;;;;;0.75;72.74;94594.22;5116567;27;20023;-73
2022/01/11 07:30:37;;;;;;;6.88;3.88;;;;;;;0.63;72.65;94570.09;5112649;27;20426;-72
2022/01/11 07:33:03;;;;;;;6.70;3.53;;;;;;;0.78;72.94;94607.72;5118902;27;20027;-72
2022/01/11 07:35:28;;;;;;;6.28;3.15;;;;;;;0.74;73.06;94601.09;5120766;27;20043;-77
2022/01/11 07:37:54;;;;;;;6.55;4.05;;;;;;;0.61;71.90;94607.69;5097705;27;20535;-72
2022/01/11 07:40:20;;;;;;;11.60;5.10;;;;;;;0.69;72.46;94612.44;5125536;27;20080;-73
2022/01/11 07:42:45;;;;;;;9.73;4.68;;;;;;;0.69;72.80;94612.44;5098336;27;20042;-75
2022/01/11 07:45:11;;;;;;;8.32;4.00;;;;;;;0.70;72.32;94608.97;5115857;27;20288;-75
2022/01/11 07:47:36;;;;;;;9.00;3.72;;;;;;;0.65;74.76;94607.47;5114426;27;20106;-74
2022/01/11 07:50:03;;;;;;;7.07;3.40;;;;;;;0.71;72.71;94615.75;5131808;27;20031;-75
2022/01/11 07:52:28;;;;;;;7.28;3.22;;;;;;;0.70;71.58;94614.94;5129615;27;20025;-75
2022/01/11 07:54:54;;;;;;;6.00;3.17;;;;;;;0.67;71.86;94627.84;5094472;27;20405;-74
2022/01/11 07:57:19;;;;;;;7.07;3.30;;;;;;;0.56;72.65;94614.75;5130644;27;20027;-73
2022/01/11 07:59:45;;;;;;;8.27;3.70;;;;;;;0.71;72.83;94631.91;5127834;27;20015;-73
2022/01/11 08:02:10;;;;;;;8.88;4.78;;;;;;;0.76;73.48;94635.09;5108694;27;20567;-74
2022/01/11 08:04:36;;;;;;;9.77;5.60;;;;;;;0.74;72.65;94626.66;5115508;27;20019;-76
2022/01/11 08:07:01;;;;;;;10.65;4.40;;;;;;;0.72;73.32;94628.44;5123845;27;20041;-72
2022/01/11 08:09:27;;;;;;;6.68;3.70;;;;;;;0.76;72.94;94634.25;5099189;28;20035;-73
2022/01/11 08:11:55;;;;;;;5.50;3.30;;;;;;;0.75;72.24;94633.41;5099200;27;20031;-73
2022/01/11 08:14:21;;;;;;;7.50;3.55;;;;;;;0.85;70.45;94649.16;5112054;27;20038;-73
2022/01/11 08:16:47;;;;;;;7.10;4.22;;;;;;;0.84;70.12;94648.34;5109850;28;20439;-73
2022/01/11 08:19:12;;;;;;;8.88;5.53;;;;;;;0.80;72.56;94643.44;5110724;28;20027;-73
2022/01/11 08:21:38;;;;;;;12.57;5.40;;;;;;;0.85;72.41;94644.88;5094006;28;20494;-73
2022/01/11 08:24:03;;;;;;;7.40;4.18;;;;;;;0.86;70.88;94644.00;5093664;28;20024;-73
2022/01/11 08:26:29;;;;;;;6.47;3.38;;;;;;;0.87;71.25;94647.38;5076992;28;20067;-73
2022/01/11 08:28:54;;;;;;;6.53;3.35;;;;;;;0.84;72.12;94660.31;5111983;28;20016;-73
2022/01/11 08:31:20;;;;;;;13.23;5.70;;;;;;;0.81;71.24;94668.13;5111935;28;20054;-73
2022/01/11 08:33:46;;;;;;;13.02;6.05;;;;;;;0.85;72.16;94669.63;5110663;28;20026;-73
2022/01/11 08:36:12;;;;;;;13.05;6.15;;;;;;;0.88;71.98;94670.31;5110786;28;20112;-73
2022/01/11 08:38:37;;;;;;;10.82;5.95;;;;;;;0.88;71.91;94670.31;5093647;28;20081;-73
2022/01/11 08:41:03;;;;;;;9.55;5.20;;;;;;;0.90;71.57;94675.34;5110699;28;20053;-73
2022/01/11 08:43:28;;;;;;;10.02;6.47;;;;;;;0.94;71.39;94674.28;5093466;28;20030;-73
2022/01/11 08:45:54;;;;;;;14.75;7.55;;;;;;;0.85;70.99;94674.75;5110338;28;20047;-73
2022/01/11 08:48:19;;;;;;;14.85;8.30;;;;;;;0.91;70.94;94686.41;5111683;28;20024;-73
2022/01/11 08:50:44;;;;;;;9.38;6.47;;;;;;;0.92;70.54;94693.19;5110442;28;20039;-73
2022/01/11 08:53:10;;;;;;;11.55;7.10;;;;;;;0.92;70.80;94688.06;5110465;28;20019;-73
2022/01/11 08:55:36;;;;;;;14.93;7.63;;;;;;;0.92;72.13;94691.47;5110334;28;20045;-73
2022/01/11 08:58:01;;;;;;;14.30;8.00;;;;;;;0.81;71.44;94697.09;5110348;28;20413;-73
2022/01/11 09:00:27;;;;;;;12.02;6.10;;;;;;;0.82;71.86;94698.72;5093134;28;20035;-74
2022/01/11 09:02:52;;;;;;;12.38;7.38;;;;;;;0.82;71.24;94696.16;5093369;28;20481;-73
2022/01/11 09:05:18;;;;;;;12.05;6.53;;;;;;;0.70;71.73;94678.84;5093114;28;20039;-73
2022/01/11 09:07:43;;;;;;;11.88;6.80;;;;;;;0.91;71.57;94699.19;5093199;28;20024;-73
2022/01/11 09:10:09;;;;;;;68.20;25.10;;;;;;;0.92;71.57;94705.97;5110090;28;20035;-73
2022/01/11 09:12:35;;;;;;;118.35;39.92;;;;;;;0.88;70.89;94701.00;5110059;28;20103;-74
2022/01/11 09:15:01;;;;;;;237.65;75.90;;;;;;;0.93;71.17;94703.34;5093117;28;20016;-73
2022/01/11 09:17:26;;;;;;;47.25;21.15;;;;;;;0.94;71.73;94715.22;5110098;28;20028;-73
2022/01/11 09:19:52;;;;;;;81.75;38.35;;;;;;;0.81;71.47;94706.50;5093111;28;20024;-73
2022/01/11 09:22:17;;;;;;;52.33;29.58;;;;;;;0.96;71.33;94722.84;5110055;28;20080;-73
2022/01/11 09:24:43;;;;;;;30.05;17.88;;;;;;;0.95;70.74;94719.47;5094627;28;20030;-73
2022/01/11 09:27:08;;;;;;;16.77;10.48;;;;;;;0.97;70.84;94721.94;5114371;28;20027;-73
2022/01/11 09:29:36;;;;;;;18.58;8.98;;;;;;;1.02;70.67;94727.66;5097020;28;20303;-73
2022/01/11 09:32:02;;;;;;;25.35;11.20;;;;;;;0.93;70.47;94705.09;5114505;28;20424;-73
2022/01/11 09:34:28;;;;;;;29.60;15.60;;;;;;;0.96;70.58;94723.66;5097049;28;20023;-73
2022/01/11 09:36:53;;;;;;;70.00;29.10;;;;;;;0.98;71.22;94718.50;5080444;28;20069;-73
2022/01/11 09:39:19;;;;;;;65.50;33.50;;;;;;;0.89;71.56;94706.94;5115221;28;20506;-73
2022/01/11 09:41:44;;;;;;;58.85;35.28;;;;;;;0.96;71.67;94717.72;5097329;28;20069;-73
2022/01/11 09:44:10;;;;;;;31.20;15.32;;;;;;;0.93;69.92;94720.44;5079917;28;20030;-73
2022/01/11 09:46:35;;;;;;;18.30;9.23;;;;;;;0.91;69.95;94725.59;5097080;28;20035;-73
2022/01/11 09:49:01;;;;;;;13.60;6.90;;;;;;;0.88;69.77;94726.56;5096886;28;20036;-73
2022/01/11 09:51:26;;;;;;;37.13;17.23;;;;;;;0.87;69.58;94730.03;5096934;28;20118;-73
2022/01/11 09:53:52;;;;;;;26.55;11.75;;;;;;;0.86;70.23;94733.50;5096721;28;20042;-73
2022/01/11 09:56:18;;;;;;;94.75;43.28;;;;;;;0.87;69.08;94719.81;5096940;28;20039;-73
2022/01/11 09:58:44;;;;;;;61.03;29.23;;;;;;;0.88;69.39;94736.81;5096696;28;20106;-73
2022/01/11 10:01:09;;;;;;;31.30;14.93;;;;;;;0.89;70.14;94735.06;5096950;28;20035;-73
2022/01/11 10:04:06;;;;;;;93.00;40.05;;;;;;;0.87;69.01;94747.13;5079452;28;20535;-73
2022/01/11 10:06:37;;;;;;;118.40;40.92;;;;;;;0.85;69.15;94736.13;5097110;28;20070;-73
2022/01/11 10:09:16;;;;;;;196.57;74.10;;;;;;;0.76;69.30;94719.47;5096906;28;20035;-73
2022/01/11 10:11:44;;;;;;;90.15;45.92;;;;;;;0.83;68.31;94728.50;5113806;28;20486;-73
2022/01/11 10:14:34;;;;;;;23.60;13.25;;;;;;;0.80;67.66;94732.94;5096554;28;20035;-74
2022/01/11 10:17:15;;;;;;;59.92;31.35;;;;;;;0.71;67.22;94716.31;5093403;28;20058;-73
2022/01/11 10:19:42;;;;;;;43.53;24.52;;;;;;;0.66;66.41;94731.00;5096837;28;20019;-73
2022/01/11 10:22:10;;;;;;;10.55;6.70;;;;;;;0.62;64.66;94729.50;5096573;28;20100;-73
2022/01/11 10:24:39;;;;;;;30.60;15.40;;;;;;;0.58;65.32;94741.59;5079266;28;20472;-73
2022/01/11 10:27:24;;;;;;;30.23;17.13;;;;;;;0.56;65.87;94735.72;5113455;28;20023;-73
2022/01/11 10:29:54;;;;;;;13.55;9.30;;;;;;;0.58;66.18;94740.75;5112881;28;20035;-73
2022/01/11 10:32:25;;;;;;;14.68;7.93;;;;;;;0.63;66.12;94746.50;5097052;28;20426;-73
2022/01/11 10:34:55;;;;;;;15.18;7.90;;;;;;;0.60;65.81;94741.53;5112916;28;20032;-73
2022/01/11 10:37:42;;;;;;;13.90;8.27;;;;;;;0.64;66.06;94746.44;5112386;28;20032;-73
2022/01/11 10:40:12;;;;;;;13.05;7.28;;;;;;;0.69;65.44;94741.09;5112684;28;20035;-73
2022/01/11 10:42:49;;;;;;;9.95;6.28;;;;;;;0.70;64.97;94740.22;5114254;28;20034;-73
2022/01/11 10:45:21;;;;;;;12.68;8.30;;;;;;;0.62;64.78;94743.13;5079062;28;20477;-73
2022/01/11 10:47:55;;;;;;;14.40;8.63;;;;;;;0.60;64.81;94738.97;5095764;28;20031;-73
2022/01/11 10:50:28;;;;;;;14.95;9.20;;;;;;;0.60;65.98;94747.47;5112921;28;20032;-73
2022/01/11 10:52:55;;;;;;;11.45;7.20;;;;;;;0.57;65.57;94746.78;5096523;28;20519;-73
2022/01/11 10:55:21;;;;;;;10.60;6.40;;;;;;;0.59;64.35;94743.25;5095728;28;20542;-73
2022/01/11 10:57:53;;;;;;;23.42;12.88;;;;;;;0.62;66.00;94742.28;5112690;28;20035;-74
2022/01/11 11:00:19;;;;;;;61.05;31.73;;;;;;;0.61;65.47;94745.72;5095471;28;20038;-73
2022/01/11 11:03:10;;;;;;;39.70;23.25;;;;;;;0.60;65.97;94746.63;5095686;28;20031;-73
2022/01/11 11:05:37;;;;;;;31.17;18.57;;;;;;;0.61;64.95;94744.03;5098006;28;20031;-73
2022/01/11 11:08:10;;;;;;;19.35;11.57;;;;;;;0.56;64.61;94743.41;5112633;28;20042;-74
2022/01/11 11:10:38;;;;;;;22.02;13.27;;;;;;;0.55;65.19;94740.91;5112448;28;20030;-73
2022/01/11 11:13:05;;;;;;;18.27;11.13;;;;;;;0.44;65.76;94737.09;5112414;28;20032;-73
2022/01/11 11:15:33;;;;;;;13.88;8.75;;;;;;;0.42;64.96;94732.97;5095394;28;20096;-73
2022/01/11 11:17:58;;;;;;;15.00;8.27;;;;;;;0.46;65.98;94733.66;5078698;28;20043;-73
2022/01/11 11:20:24;;;;;;;15.25;9.57;;;;;;;0.40;65.07;94732.19;5112126;28;20027;-73
2022/01/11 11:22:50;;;;;;;13.55;8.77;;;;;;;0.42;64.76;94738.91;5112268;28;20084;-74
2022/01/11 11:25:15;;;;;;;14.40;6.72;;;;;;;0.46;64.75;94749.00;5112202;28;20028;-73
2022/01/11 11:27:41;;;;;;;16.48;8.60;;;;;;;0.34;64.88;94740.97;5112110;28;20039;-73
2022/01/11 11:30:07;;;;;;;19.17;8.75;;;;;;;0.42;64.86;94750.84;5111669;28;20054;-74
2022/01/11 11:32:33;;;;;;;17.15;9.60;;;;;;;0.35;64.82;94745.16;5113306;28;20039;-73
2022/01/11 11:34:58;;;;;;;13.75;7.15;;;;;;;0.27;64.26;94742.13;5095100;28;20031;-73